createdAt,value
2018-06-12T00:00:56.210Z,97477.11
2018-06-12T00:03:26.251Z,97478.39
2018-06-12T00:05:55.351Z,97473.16
2018-06-12T00:08:24.459Z,97477.39
2018-06-12T00:10:54.337Z,97478.39
2018-06-12T00:13:23.431Z,97476.50
2018-06-12T00:15:52.535Z,97478.13
2018-06-12T00:18:21.622Z,97487.51
2018-06-12T00:20:50.723Z,97493.28
2018-06-12T00:23:19.814Z,97497.94
2018-06-12T00:25:48.954Z,97497.45
2018-06-12T00:28:18.858Z,97498.38
2018-06-12T00:30:47.954Z,97503.39
2018-06-12T00:33:17.095Z,97507.37
2018-06-12T00:35:46.186Z,97506.16
2018-06-12T00:38:15.422Z,97503.38
2018-06-12T00:40:44.542Z,97506.94
2018-06-12T00:43:13.669Z,97504.88
2018-06-12T00:45:42.796Z,97502.98
2018-06-12T00:48:11.901Z,97502.23
2018-06-12T00:50:40.987Z,97501.46
2018-06-12T00:53:10.089Z,97502.55
2018-06-12T00:55:39.972Z,97500.23
2018-06-12T00:58:09.083Z,97493.56
2018-06-12T01:00:38.161Z,97496.14
2018-06-12T01:03:07.351Z,97495.41
2018-06-12T01:05:36.438Z,97491.97
2018-06-12T01:08:09.122Z,97487.95
2018-06-12T01:10:38.210Z,97491.36
2018-06-12T01:13:07.316Z,97498.09
2018-06-12T01:15:36.810Z,97496.73
2018-06-12T01:18:06.845Z,97497.77
2018-06-12T01:20:36.702Z,97487.97
2018-06-12T01:23:06.475Z,97488.65
2018-06-12T01:25:35.603Z,97497.92
2018-06-12T01:28:04.762Z,97503.34
2018-06-12T01:30:33.858Z,97507.13
2018-06-12T01:33:03.007Z,97503.88
2018-06-12T01:35:32.155Z,97501.39
2018-06-12T01:38:01.434Z,97504.11
2018-06-12T01:40:30.713Z,97497.25
2018-06-12T01:43:00.158Z,97497.12
2018-06-12T01:45:29.275Z,97501.07
2018-06-12T01:47:58.387Z,97505.16
2018-06-12T01:50:27.514Z,97505.45
2018-06-12T01:52:56.613Z,97500.37
2018-06-12T01:55:25.726Z,97499.78
2018-06-12T01:57:54.838Z,97499.96
2018-06-12T02:00:23.732Z,97507.17
2018-06-12T02:02:52.868Z,97497.88
2018-06-12T02:05:22.070Z,97501.91
2018-06-12T02:07:51.387Z,97506.28
2018-06-12T02:10:22.982Z,97504.53
2018-06-12T02:12:51.860Z,97506.20
2018-06-12T02:15:23.727Z,97502.23
2018-06-12T02:17:52.621Z,97495.33
2018-06-12T02:20:21.730Z,97490.62
2018-06-12T02:22:50.865Z,97488.19
2018-06-12T02:25:19.972Z,97486.96
2018-06-12T02:27:49.074Z,97487.51
2018-06-12T02:30:18.207Z,97485.70
2018-06-12T02:32:47.983Z,97489.62
2018-06-12T02:35:17.151Z,97494.41
2018-06-12T02:37:46.288Z,97495.03
2018-06-12T02:40:16.927Z,97493.34
2018-06-12T02:42:46.826Z,97493.41
2018-06-12T02:45:15.936Z,97485.16
2018-06-12T02:47:48.334Z,97479.75
2018-06-12T02:50:17.509Z,97485.41
2018-06-12T02:52:46.578Z,97487.21
2018-06-12T02:55:15.702Z,97486.75
2018-06-12T02:57:44.780Z,97485.70
2018-06-12T03:00:13.877Z,97486.89
2018-06-12T03:02:42.993Z,97483.30
2018-06-12T03:05:12.451Z,97489.46
2018-06-12T03:07:41.622Z,97483.06
2018-06-12T03:10:10.746Z,97477.55
2018-06-12T03:12:39.853Z,97484.52
2018-06-12T03:15:09.147Z,97478.35
2018-06-12T03:17:38.287Z,97476.81
2018-06-12T03:20:07.379Z,97471.73
2018-06-12T03:22:36.737Z,97466.49
2018-06-12T03:25:05.890Z,97463.06
2018-06-12T03:27:34.962Z,97459.30
2018-06-12T03:30:03.588Z,97464.76
2018-06-12T03:32:32.886Z,97466.88
2018-06-12T03:35:01.980Z,97472.09
2018-06-12T03:37:31.092Z,97479.84
2018-06-12T03:40:00.209Z,97491.50
2018-06-12T03:42:29.311Z,97498.45
2018-06-12T03:44:58.403Z,97490.70
2018-06-12T03:47:27.557Z,97490.06
2018-06-12T03:49:56.646Z,97490.78
2018-06-12T03:52:25.758Z,97489.97
2018-06-12T03:54:54.894Z,97494.35
2018-06-12T03:57:23.983Z,97493.13
2018-06-12T03:59:53.088Z,97487.98
2018-06-12T04:02:22.424Z,97481.62
2018-06-12T04:04:51.607Z,97489.40
2018-06-12T04:07:20.763Z,97488.41
2018-06-12T04:09:50.286Z,97484.48
2018-06-12T04:12:20.107Z,97485.75
2018-06-12T04:14:49.280Z,97480.61
2018-06-12T04:17:18.381Z,97480.86
2018-06-12T04:19:47.566Z,97473.97
2018-06-12T04:22:17.042Z,97477.70
2018-06-12T04:24:46.179Z,97473.14
2018-06-12T04:27:15.378Z,97474.42
2018-06-12T04:29:44.518Z,97474.84
2018-06-12T04:32:13.647Z,97473.80
2018-06-12T04:34:43.510Z,97474.62
2018-06-12T04:37:12.602Z,97465.93
2018-06-12T04:39:41.674Z,97459.58
2018-06-12T04:42:10.783Z,97456.80
2018-06-12T04:44:39.867Z,97457.86
2018-06-12T04:47:08.969Z,97461.77
2018-06-12T04:49:38.070Z,97458.23
2018-06-12T04:52:07.234Z,97450.81
2018-06-12T04:54:51.547Z,97456.83
2018-06-12T04:57:20.851Z,97456.45
2018-06-12T04:59:50.122Z,97453.25
2018-06-12T05:02:19.738Z,97466.28
2018-06-12T05:04:48.850Z,97472.03
2018-06-12T05:07:17.994Z,97477.89
2018-06-12T05:09:47.080Z,97477.35
2018-06-12T05:12:18.616Z,97472.80
2018-06-12T05:14:47.699Z,97472.67
2018-06-12T05:17:17.104Z,97470.41
2018-06-12T05:19:47.307Z,97464.63
2018-06-12T05:22:17.147Z,97465.46
2018-06-12T05:24:46.288Z,97469.66
2018-06-12T05:27:15.589Z,97470.86
2018-06-12T05:29:49.273Z,97461.75
2018-06-12T05:32:18.638Z,97462.29
2018-06-12T05:34:47.787Z,97463.80
2018-06-12T05:37:16.934Z,97459.13
2018-06-12T05:39:48.507Z,97466.77
2018-06-12T05:42:17.605Z,97463.26
2018-06-12T05:44:46.683Z,97466.81
2018-06-12T05:47:15.846Z,97462.19
2018-06-12T05:49:44.978Z,97474.83
2018-06-12T05:52:14.070Z,97475.76
2018-06-12T05:54:43.208Z,97483.38
2018-06-12T05:57:12.725Z,97487.80
2018-06-12T05:59:42.727Z,97490.88
2018-06-12T06:02:11.870Z,97489.92
2018-06-12T06:04:41.815Z,97495.95
2018-06-12T06:07:11.029Z,97491.47
2018-06-12T06:09:41.010Z,97495.33
2018-06-12T06:12:10.837Z,97502.27
2018-06-12T06:14:40.470Z,97500.67
2018-06-12T06:17:09.618Z,97503.67
2018-06-12T06:19:38.727Z,97504.70
2018-06-12T06:22:07.874Z,97502.67
2018-06-12T06:24:36.992Z,97509.88
2018-06-12T06:27:06.223Z,97507.30
2018-06-12T06:29:35.366Z,97507.59
2018-06-12T06:32:04.536Z,97508.55
2018-06-12T06:34:33.650Z,97509.33
2018-06-12T06:37:02.579Z,97509.73
2018-06-12T06:39:32.624Z,97507.57
2018-06-12T06:42:01.773Z,97501.44
2018-06-12T06:44:30.882Z,97507.09
2018-06-12T06:46:59.971Z,97502.75
2018-06-12T06:49:29.068Z,97506.53
2018-06-12T06:51:58.210Z,97504.38
2018-06-12T06:54:27.299Z,97509.53
2018-06-12T06:56:56.634Z,97505.42
2018-06-12T06:59:25.801Z,97513.34
2018-06-12T07:01:54.918Z,97508.41
2018-06-12T07:04:24.012Z,97508.37
2018-06-12T07:06:53.181Z,97507.30
2018-06-12T07:09:22.687Z,97506.23
2018-06-12T07:11:55.382Z,97501.48
2018-06-12T07:14:24.507Z,97506.03
2018-06-12T07:16:53.614Z,97498.42
2018-06-12T07:19:23.143Z,97505.15
2018-06-12T07:21:52.302Z,97497.44
2018-06-12T07:24:21.442Z,97498.59
2018-06-12T07:26:50.561Z,97499.26
2018-06-12T07:29:19.671Z,97502.33
2018-06-12T07:31:48.761Z,97502.53
2018-06-12T07:34:18.183Z,97506.72
2018-06-12T07:36:49.372Z,97503.91
2018-06-12T07:39:18.510Z,97499.16
2018-06-12T07:41:47.684Z,97508.33
2018-06-12T07:44:17.356Z,97506.61
2018-06-12T07:46:46.551Z,97505.08
2018-06-12T07:49:15.648Z,97503.33
2018-06-12T07:51:44.919Z,97504.72
2018-06-12T07:54:14.865Z,97504.91
2018-06-12T07:56:43.973Z,97505.42
2018-06-12T07:59:13.066Z,97500.74
2018-06-12T08:01:42.159Z,97501.73
2018-06-12T08:04:11.270Z,97502.73
2018-06-12T08:06:40.406Z,97492.62
2018-06-12T08:09:09.542Z,97500.05
2018-06-12T08:11:38.795Z,97500.69
2018-06-12T08:14:08.526Z,97502.01
2018-06-12T08:16:37.699Z,97504.04
2018-06-12T08:19:06.861Z,97503.91
2018-06-12T08:21:36.076Z,97505.20
2018-06-12T08:24:05.570Z,97511.13
2018-06-12T08:26:34.839Z,97507.64
2018-06-12T08:29:03.963Z,97509.68
2018-06-12T08:31:33.063Z,97512.22
2018-06-12T08:34:03.959Z,97508.17
2018-06-12T08:36:33.634Z,97511.00
2018-06-12T08:39:02.843Z,97503.78
2018-06-12T08:41:31.974Z,97503.61
2018-06-12T08:44:01.045Z,97507.09
2018-06-12T08:46:30.843Z,97501.98
2018-06-12T08:49:00.039Z,97499.55
2018-06-12T08:51:29.491Z,97508.81
2018-06-12T08:53:59.697Z,97504.62
2018-06-12T08:56:28.830Z,97507.77
2018-06-12T08:58:58.234Z,97500.83
2018-06-12T09:01:27.404Z,97502.86
2018-06-12T09:03:56.675Z,97498.57
2018-06-12T09:06:26.192Z,97500.57
2018-06-12T09:08:55.727Z,97502.47
2018-06-12T09:11:24.965Z,97500.11
2018-06-12T09:13:54.446Z,97505.92
2018-06-12T09:16:23.646Z,97503.78
2018-06-12T09:18:52.747Z,97504.61
2018-06-12T09:21:21.928Z,97501.44
2018-06-12T09:23:51.135Z,97503.03
2018-06-12T09:26:20.223Z,97500.86
2018-06-12T09:28:49.328Z,97500.92
2018-06-12T09:31:18.454Z,97504.72
2018-06-12T09:33:47.526Z,97513.95
2018-06-12T09:36:21.856Z,97509.94
2018-06-12T09:38:50.943Z,97502.50
2018-06-12T09:41:20.032Z,97504.03
2018-06-12T09:43:49.264Z,97500.30
2018-06-12T09:46:18.343Z,97500.33
2018-06-12T09:48:47.486Z,97503.08
2018-06-12T09:51:17.118Z,97503.19
2018-06-12T09:53:46.235Z,97499.13
2018-06-12T09:56:15.328Z,97500.97
2018-06-12T09:58:44.433Z,97493.56
2018-06-12T10:01:18.860Z,97495.36
2018-06-12T10:03:49.954Z,97495.86
2018-06-12T10:06:19.073Z,97492.44
2018-06-12T10:08:48.170Z,97491.28
2018-06-12T10:11:17.286Z,97489.70
2018-06-12T10:13:46.383Z,97492.10
2018-06-12T10:16:15.483Z,97485.47
2018-06-12T10:18:44.633Z,97485.98
2018-06-12T10:21:13.719Z,97483.34
2018-06-12T10:23:42.979Z,97480.50
2018-06-12T10:26:12.103Z,97484.67
2018-06-12T10:28:41.222Z,97478.14
2018-06-12T10:31:10.299Z,97475.86
2018-06-12T10:33:40.034Z,97468.78
2018-06-12T10:36:09.139Z,97460.73
2018-06-12T10:38:38.238Z,97454.75
2018-06-12T10:41:07.369Z,97450.05
2018-06-12T10:43:36.506Z,97444.70
2018-06-12T10:46:05.606Z,97437.40
2018-06-12T10:48:34.723Z,97433.45
2018-06-12T10:51:03.854Z,97429.84
2018-06-12T10:53:32.929Z,97430.50
2018-06-12T10:56:02.063Z,97427.58
2018-06-12T10:58:33.511Z,97428.56
2018-06-12T11:01:02.647Z,97424.32
2018-06-12T11:03:31.761Z,97429.72
2018-06-12T11:06:00.789Z,97430.94
2018-06-12T11:08:29.926Z,97420.78
2018-06-12T11:10:59.009Z,97414.52
2018-06-12T11:13:28.090Z,97413.30
2018-06-12T11:15:57.270Z,97417.41
2018-06-12T11:18:26.364Z,97405.33
2018-06-12T11:20:55.463Z,97412.72
2018-06-12T11:23:24.566Z,97416.82
2018-06-12T11:25:53.636Z,97406.01
2018-06-12T11:28:22.763Z,97407.95
2018-06-12T11:30:52.571Z,97407.44
2018-06-12T11:33:21.675Z,97409.41
2018-06-12T11:35:50.967Z,97403.52
2018-06-12T11:38:20.162Z,97405.73
2018-06-12T11:40:49.283Z,97399.70
2018-06-12T11:43:18.402Z,97387.84
2018-06-12T11:45:47.315Z,97385.30
2018-06-12T11:48:17.031Z,97384.86
2018-06-12T11:50:46.106Z,97396.11
2018-06-12T11:53:15.190Z,97415.85
2018-06-12T11:55:44.834Z,97416.16
2018-06-12T11:58:13.914Z,97414.16
2018-06-12T12:00:43.014Z,97427.25
2018-06-12T12:03:12.166Z,97442.38
2018-06-12T12:05:42.368Z,97449.02
2018-06-12T12:08:11.475Z,97449.55
2018-06-12T12:10:40.608Z,97444.47
2018-06-12T12:13:09.807Z,97445.91
2018-06-12T12:15:38.890Z,97451.86
2018-06-12T12:18:08.047Z,97447.02
2018-06-12T12:20:37.147Z,97441.80
2018-06-12T12:23:06.610Z,97452.39
2018-06-12T12:25:35.767Z,97456.86
2018-06-12T12:28:04.992Z,97451.61
2018-06-12T12:30:35.158Z,97454.42
2018-06-12T12:33:04.379Z,97463.93
2018-06-12T12:35:33.520Z,97463.62
2018-06-12T12:38:03.178Z,97467.02
2018-06-12T12:40:33.093Z,97466.05
2018-06-12T12:43:02.787Z,97468.93
2018-06-12T12:45:31.951Z,97463.77
2018-06-12T12:48:01.099Z,97463.77
2018-06-12T12:50:30.190Z,97463.77
2018-06-12T12:52:59.325Z,97463.80
2018-06-12T12:55:28.435Z,97465.02
2018-06-12T12:57:57.088Z,97466.41
2018-06-12T13:00:26.216Z,97470.48
2018-06-12T13:02:55.207Z,97479.28
2018-06-12T13:05:24.864Z,97480.17
2018-06-12T13:07:54.035Z,97474.41
2018-06-12T13:10:23.463Z,97470.00
2018-06-12T13:12:52.599Z,97479.23
2018-06-12T13:15:21.712Z,97478.95
2018-06-12T13:17:51.176Z,97480.06
2018-06-12T13:20:21.031Z,97481.14
2018-06-12T13:22:50.130Z,97473.17
2018-06-12T13:25:19.250Z,97475.30
2018-06-12T13:27:48.384Z,97478.39
2018-06-12T13:30:17.507Z,97480.47
2018-06-12T13:32:46.603Z,97476.95
2018-06-12T13:35:15.758Z,97483.23
2018-06-12T13:37:44.919Z,97480.70
2018-06-12T13:40:14.058Z,97477.70
2018-06-12T13:42:43.216Z,97486.00
2018-06-12T13:45:12.362Z,97485.77
2018-06-12T13:47:41.491Z,97480.35
2018-06-12T13:50:10.631Z,97482.75
2018-06-12T13:52:40.075Z,97475.00
2018-06-12T13:55:09.187Z,97470.11
2018-06-12T13:57:37.963Z,97476.03
2018-06-12T14:00:06.827Z,97475.16
2018-06-12T14:02:36.085Z,97474.57
2018-06-12T14:05:05.278Z,97478.22
2018-06-12T14:07:34.387Z,97476.39
2018-06-12T14:10:03.674Z,97479.75
2018-06-12T14:12:32.846Z,97469.25
2018-06-12T14:15:01.948Z,97464.42
2018-06-12T14:17:31.114Z,97465.95
2018-06-12T14:20:00.253Z,97452.61
2018-06-12T14:22:31.758Z,97451.36
2018-06-12T14:25:01.106Z,97455.26
2018-06-12T14:27:30.231Z,97454.23
2018-06-12T14:29:59.720Z,97453.69
2018-06-12T14:32:28.854Z,97459.34
2018-06-12T14:34:57.970Z,97463.73
2018-06-12T14:37:27.096Z,97464.24
2018-06-12T14:39:56.905Z,97461.17
2018-06-12T14:42:26.250Z,97455.78
2018-06-12T14:44:57.218Z,97449.53
2018-06-12T14:47:26.678Z,97450.30
2018-06-12T14:49:56.002Z,97451.85
2018-06-12T14:52:25.207Z,97450.56
2018-06-12T14:54:54.690Z,97446.23
2018-06-12T14:58:26.404Z,97444.92
2018-06-12T15:00:56.123Z,97444.06
2018-06-12T15:03:25.242Z,97445.63
2018-06-12T15:05:54.338Z,97438.86
2018-06-12T15:08:23.459Z,97438.33
2018-06-12T15:10:53.299Z,97430.95
2018-06-12T15:13:22.407Z,97438.38
2018-06-12T15:15:51.490Z,97442.20
2018-06-12T15:18:20.615Z,97442.22
2018-06-12T15:20:49.730Z,97436.87
2018-06-12T15:23:18.864Z,97434.46
2018-06-12T15:25:47.968Z,97422.95
2018-06-12T15:28:17.091Z,97423.44
2018-06-12T15:30:46.187Z,97420.55
2018-06-12T15:33:15.283Z,97424.13
2018-06-12T15:35:45.032Z,97422.16
2018-06-12T15:38:14.151Z,97422.94
2018-06-12T15:40:43.743Z,97422.64
2018-06-12T15:43:12.551Z,97423.16
2018-06-12T15:45:41.715Z,97428.87
2018-06-12T15:48:11.946Z,97422.34
2018-06-12T15:50:41.363Z,97425.48
2018-06-12T15:53:10.458Z,97415.08
2018-06-12T15:55:39.606Z,97420.14
2018-06-12T15:58:09.381Z,97417.00
2018-06-12T16:00:38.529Z,97419.93
2018-06-12T16:03:07.691Z,97415.02
2018-06-12T16:05:37.023Z,97415.47
2018-06-12T16:08:06.805Z,97414.90
2018-06-12T16:10:36.173Z,97406.69
2018-06-12T16:13:06.430Z,97405.95
2018-06-12T16:15:37.646Z,97407.51
2018-06-12T16:18:07.079Z,97401.67
2018-06-12T16:20:36.335Z,97400.48
2018-06-12T16:23:05.514Z,97397.36
2018-06-12T16:25:34.650Z,97399.88
2018-06-12T16:28:03.765Z,97399.47
2018-06-12T16:30:32.914Z,97407.55
2018-06-12T16:33:02.163Z,97402.31
2018-06-12T16:35:31.258Z,97403.15
2018-06-12T16:38:00.372Z,97402.03
2018-06-12T16:40:29.491Z,97400.12
2018-06-12T16:42:58.603Z,97387.70
2018-06-12T16:45:27.699Z,97381.45
2018-06-12T16:47:56.835Z,97378.55
2018-06-12T16:50:26.011Z,97379.16
2018-06-12T16:52:55.113Z,97385.94
2018-06-12T16:55:24.256Z,97378.59
2018-06-12T16:57:53.377Z,97376.94
2018-06-12T17:00:22.469Z,97381.13
2018-06-12T17:02:51.610Z,97386.80
2018-06-12T17:05:21.357Z,97384.59
2018-06-12T17:07:50.569Z,97384.83
2018-06-12T17:10:20.406Z,97386.03
2018-06-12T17:12:49.585Z,97380.55
2018-06-12T17:15:18.722Z,97386.22
2018-06-12T17:17:47.918Z,97377.69
2018-06-12T17:20:17.150Z,97384.71
2018-06-12T17:22:46.343Z,97384.20
2018-06-12T17:25:16.015Z,97386.22
2018-06-12T17:27:45.150Z,97388.11
2018-06-12T17:30:14.368Z,97388.13
2018-06-12T17:32:43.541Z,97384.85
2018-06-12T17:35:12.678Z,97386.41
2018-06-12T17:37:41.814Z,97384.63
2018-06-12T17:40:11.250Z,97384.32
2018-06-12T17:42:40.440Z,97387.87
2018-06-12T17:45:09.666Z,97385.81
2018-06-12T17:47:38.790Z,97382.70
2018-06-12T17:50:08.391Z,97389.13
2018-06-12T17:52:37.587Z,97381.01
2018-06-12T17:55:06.797Z,97387.11
2018-06-12T17:57:35.822Z,97390.04
2018-06-12T18:00:04.598Z,97394.69
2018-06-12T18:02:33.832Z,97389.78
2018-06-12T18:05:02.944Z,97390.53
2018-06-12T18:07:32.198Z,97393.39
2018-06-12T18:10:01.371Z,97391.80
2018-06-12T18:12:30.467Z,97400.63
2018-06-12T18:14:59.166Z,97405.34
2018-06-12T18:17:28.575Z,97405.63
2018-06-12T18:20:01.666Z,97411.09
2018-06-12T18:22:31.948Z,97415.50
2018-06-12T18:25:01.168Z,97418.09
2018-06-12T18:27:30.858Z,97409.27
2018-06-12T18:29:59.959Z,97404.59
2018-06-12T18:32:29.034Z,97401.89
2018-06-12T18:34:58.193Z,97395.25
2018-06-12T18:37:27.417Z,97392.33
2018-06-12T18:39:56.538Z,97394.56
2018-06-12T18:42:25.686Z,97402.45
2018-06-12T18:44:55.159Z,97399.43
2018-06-12T18:47:24.471Z,97391.30
2018-06-12T18:49:53.590Z,97393.25
2018-06-12T18:52:22.728Z,97395.52
2018-06-12T18:54:51.835Z,97393.36
2018-06-12T18:57:21.021Z,97401.72
2018-06-12T18:59:50.131Z,97404.85
2018-06-12T19:02:19.390Z,97402.25
2018-06-12T19:04:48.847Z,97410.92
2018-06-12T19:07:18.004Z,97412.05
2018-06-12T19:09:47.406Z,97407.22
2018-06-12T19:12:16.620Z,97405.42
2018-06-12T19:14:45.870Z,97409.79
2018-06-12T19:17:15.100Z,97408.71
2018-06-12T19:19:44.251Z,97422.84
2018-06-12T19:22:13.405Z,97421.20
2018-06-12T19:24:42.631Z,97423.06
2018-06-12T19:27:12.173Z,97422.41
2018-06-12T19:29:41.383Z,97430.95
2018-06-12T19:32:10.562Z,97429.05
2018-06-12T19:34:40.179Z,97427.79
2018-06-12T19:37:10.058Z,97435.07
2018-06-12T19:39:39.205Z,97439.98
2018-06-12T19:42:08.343Z,97443.30
2018-06-12T19:44:37.478Z,97445.39
2018-06-12T19:47:06.567Z,97451.27
2018-06-12T19:49:35.685Z,97448.70
2018-06-12T19:52:04.863Z,97452.84
2018-06-12T19:54:34.026Z,97454.45
2018-06-12T19:57:03.347Z,97460.41
2018-06-12T19:59:32.605Z,97470.50
2018-06-12T20:02:01.985Z,97469.59
2018-06-12T20:04:31.316Z,97471.94
2018-06-12T20:07:00.490Z,97471.08
2018-06-12T20:09:29.649Z,97480.78
2018-06-12T20:11:59.587Z,97481.55
2018-06-12T20:14:28.711Z,97480.75
2018-06-12T20:16:57.847Z,97487.18
2018-06-12T20:19:26.932Z,97478.63
2018-06-12T20:21:56.036Z,97486.09
2018-06-12T20:24:25.312Z,97485.35
2018-06-12T20:26:54.431Z,97481.98
2018-06-12T20:29:23.510Z,97484.27
2018-06-12T20:31:52.629Z,97483.23
2018-06-12T20:34:21.716Z,97480.83
2018-06-12T20:36:50.883Z,97483.91
2018-06-12T20:39:20.335Z,97486.44
2018-06-12T20:41:49.505Z,97486.44
2018-06-12T20:44:18.645Z,97488.98
2018-06-12T20:46:47.848Z,97493.57
2018-06-12T20:49:16.866Z,97489.75
2018-06-12T20:51:46.031Z,97491.55
2018-06-12T20:54:15.102Z,97494.12
2018-06-12T20:56:44.199Z,97491.27
2018-06-12T20:59:13.326Z,97495.14
2018-06-12T21:01:42.603Z,97491.03
2018-06-12T21:04:11.811Z,97491.48
2018-06-12T21:06:42.272Z,97495.89
2018-06-12T21:09:11.554Z,97495.85
2018-06-12T21:11:40.714Z,97494.60
2018-06-12T21:14:09.882Z,97499.19
2018-06-12T21:16:39.079Z,97498.06
2018-06-12T21:19:08.399Z,97496.27
2018-06-12T21:21:37.558Z,97499.59
2018-06-12T21:24:06.549Z,97495.45
2018-06-12T21:26:35.685Z,97494.13
2018-06-12T21:29:05.407Z,97503.64
2018-06-12T21:31:34.523Z,97499.70
2018-06-12T21:34:03.658Z,97500.73
2018-06-12T21:36:32.814Z,97502.77
2018-06-12T21:39:02.015Z,97499.67
2018-06-12T21:41:31.131Z,97503.56
2018-06-12T21:44:00.283Z,97509.88
2018-06-12T21:46:29.384Z,97506.95
2018-06-12T21:48:58.491Z,97508.95
2018-06-12T21:51:27.626Z,97512.04
2018-06-12T21:53:57.152Z,97509.61
2018-06-12T21:56:26.434Z,97514.15
2018-06-12T21:58:55.627Z,97513.94
2018-06-12T22:01:24.747Z,97513.34
2018-06-12T22:03:53.971Z,97517.45
2018-06-12T22:06:23.582Z,97517.75
2018-06-12T22:08:53.247Z,97515.66
2018-06-12T22:11:23.038Z,97521.05
2018-06-12T22:13:52.319Z,97516.13
2018-06-12T22:16:22.782Z,97517.41
2018-06-12T22:18:55.982Z,97517.61
2018-06-12T22:21:25.099Z,97522.11
2018-06-12T22:23:54.216Z,97521.00
2018-06-12T22:26:23.326Z,97524.33
2018-06-12T22:28:53.955Z,97529.98
2018-06-12T22:31:23.082Z,97527.97
2018-06-12T22:33:52.179Z,97534.77
2018-06-12T22:36:21.326Z,97535.18
2018-06-12T22:38:50.431Z,97530.80
2018-06-12T22:41:19.538Z,97529.29
2018-06-12T22:43:48.632Z,97528.84
2018-06-12T22:46:17.799Z,97536.84
2018-06-12T22:48:46.966Z,97542.89
2018-06-12T22:51:16.143Z,97545.83
2018-06-12T22:53:45.494Z,97546.19
2018-06-12T22:56:14.871Z,97545.36
2018-06-12T22:58:43.959Z,97552.03
2018-06-12T23:01:13.977Z,97548.48
2018-06-12T23:03:43.165Z,97552.81
2018-06-12T23:06:12.316Z,97547.68
2018-06-12T23:08:41.447Z,97554.28
2018-06-12T23:11:10.590Z,97559.67
2018-06-12T23:13:40.330Z,97560.28
2018-06-12T23:16:09.466Z,97556.17
2018-06-12T23:18:38.569Z,97560.50
2018-06-12T23:21:26.402Z,97560.84
2018-06-12T23:23:55.503Z,97563.06
2018-06-12T23:26:24.762Z,97557.38
2018-06-12T23:28:53.955Z,97558.92
2018-06-12T23:31:23.550Z,97560.28
2018-06-12T23:33:52.875Z,97558.48
2018-06-12T23:36:22.008Z,97558.41
2018-06-12T23:38:51.085Z,97562.34
2018-06-12T23:41:19.971Z,97564.34
2018-06-12T23:43:49.126Z,97569.31
2018-06-12T23:46:18.282Z,97565.62
2018-06-12T23:48:47.374Z,97567.12
2018-06-12T23:51:16.731Z,97569.07
2018-06-12T23:53:45.820Z,97570.09
2018-06-12T23:56:14.938Z,97564.34
2018-06-12T23:58:44.075Z,97565.58
